createdAt,value
2022-08-24T00:04:23.752Z,21.87
2022-08-24T00:09:27.911Z,21.81
2022-08-24T00:14:33.397Z,21.79
2022-08-24T00:19:37.139Z,21.76
2022-08-24T00:24:41.613Z,21.73
2022-08-24T00:29:46.728Z,21.67
2022-08-24T00:34:58.930Z,21.63
2022-08-24T00:40:03.730Z,21.57
2022-08-24T00:45:12.111Z,21.53
2022-08-24T00:50:20.419Z,21.47
2022-08-24T00:55:30.483Z,21.44
2022-08-24T01:00:42.936Z,21.41
2022-08-24T01:05:52.561Z,21.37
2022-08-24T01:11:02.566Z,21.30
2022-08-24T01:16:09.687Z,21.26
2022-08-24T01:21:19.066Z,21.21
2022-08-24T01:26:29.235Z,21.16
2022-08-24T01:31:34.650Z,21.12
2022-08-24T01:36:40.258Z,21.08
2022-08-24T01:41:45.428Z,21.05
2022-08-24T01:46:53.718Z,21.00
2022-08-24T01:51:58.743Z,21.01
2022-08-24T01:57:04.602Z,20.97
2022-08-24T02:02:15.375Z,20.91
2022-08-24T02:07:19.680Z,20.90
2022-08-24T02:12:24.999Z,20.87
2022-08-24T02:17:29.148Z,20.85
2022-08-24T02:22:32.966Z,20.83
2022-08-24T02:27:38.199Z,20.78
2022-08-24T02:32:42.010Z,20.73
2022-08-24T02:37:45.865Z,20.67
2022-08-24T02:42:51.488Z,20.65
2022-08-24T02:47:55.328Z,20.63
2022-08-24T02:52:59.535Z,20.58
2022-08-24T02:58:04.819Z,20.56
2022-08-24T03:03:10.205Z,20.48
2022-08-24T03:08:14.174Z,20.48
2022-08-24T03:13:19.881Z,20.44
2022-08-24T03:18:25.796Z,20.42
2022-08-24T03:23:31.988Z,20.39
2022-08-24T03:28:39.720Z,20.36
2022-08-24T03:33:43.763Z,20.27
2022-08-24T03:38:47.872Z,20.23
2022-08-24T03:43:56.037Z,20.19
2022-08-24T03:49:00.574Z,20.15
2022-08-24T03:54:07.450Z,20.11
2022-08-24T03:59:12.724Z,20.08
2022-08-24T04:04:16.836Z,20.04
2022-08-24T04:09:20.568Z,19.99
2022-08-24T04:14:27.694Z,19.97
2022-08-24T04:19:32.474Z,19.93
2022-08-24T04:24:36.631Z,19.88
2022-08-24T04:29:41.687Z,19.84
2022-08-24T04:34:47.028Z,19.83
2022-08-24T04:39:51.390Z,19.79
2022-08-24T04:44:57.654Z,19.77
2022-08-24T04:50:01.466Z,19.75
2022-08-24T04:55:07.680Z,19.73
2022-08-24T05:00:14.340Z,19.71
2022-08-24T05:05:18.961Z,19.72
2022-08-24T05:10:23.137Z,19.71
2022-08-24T05:15:28.407Z,19.72
2022-08-24T05:20:32.255Z,19.74
2022-08-24T05:25:36.504Z,19.78
2022-08-24T05:30:42.867Z,19.78
2022-08-24T05:35:47.671Z,19.79
2022-08-24T05:40:51.898Z,19.79
2022-08-24T05:45:59.472Z,19.82
2022-08-24T05:51:03.323Z,19.84
2022-08-24T05:56:09.647Z,19.91
2022-08-24T06:01:17.859Z,19.98
2022-08-24T06:06:23.394Z,20.06
2022-08-24T06:11:31.839Z,20.08
2022-08-24T06:16:38.715Z,20.22
2022-08-24T06:21:46.785Z,20.28
2022-08-24T06:27:20.244Z,20.41
2022-08-24T06:32:25.858Z,20.52
2022-08-24T06:37:29.838Z,20.63
2022-08-24T06:42:34.382Z,20.74
2022-08-24T06:47:39.891Z,20.84
2022-08-24T06:52:44.037Z,20.96
2022-08-24T06:57:52.332Z,21.07
2022-08-24T07:02:58.156Z,21.17
2022-08-24T07:08:03.603Z,21.30
2022-08-24T07:13:07.686Z,21.42
2022-08-24T07:18:14.897Z,21.55
2022-08-24T07:23:20.684Z,21.65
2022-08-24T07:28:31.571Z,21.79
2022-08-24T07:33:38.588Z,22.03
2022-08-24T07:38:42.747Z,22.35
2022-08-24T07:43:47.586Z,22.52
2022-08-24T07:49:00.201Z,22.71
2022-08-24T07:54:16.367Z,22.86
2022-08-24T07:59:20.423Z,22.99
2022-08-24T08:04:28.207Z,23.23
2022-08-24T08:09:32.528Z,23.49
2022-08-24T08:14:37.485Z,23.78
2022-08-24T08:19:43.887Z,24.09
2022-08-24T08:24:47.983Z,24.35
2022-08-24T08:29:52.622Z,24.55
2022-08-24T08:35:01.592Z,24.74
2022-08-24T08:40:12.555Z,24.81
2022-08-24T08:45:31.905Z,24.89
2022-08-24T08:51:03.238Z,24.97
2022-08-24T08:56:14.674Z,25.02
2022-08-24T09:01:32.643Z,25.13
2022-08-24T09:06:56.566Z,25.18
2022-08-24T09:12:09.931Z,25.25
2022-08-24T09:17:29.579Z,25.30
2022-08-24T09:22:39.840Z,25.27
2022-08-24T09:28:08.251Z,25.32
2022-08-24T09:33:21.215Z,25.42
2022-08-24T09:38:42.788Z,25.64
2022-08-24T09:44:28.050Z,25.99
2022-08-24T09:50:12.559Z,26.32
2022-08-24T09:55:53.088Z,26.48
2022-08-24T10:01:09.783Z,26.85
2022-08-24T10:06:23.735Z,27.08
2022-08-24T10:11:37.372Z,27.43
2022-08-24T10:16:53.440Z,27.87
2022-08-24T10:22:04.362Z,28.48
2022-08-24T10:27:24.559Z,29.37
2022-08-24T10:32:54.374Z,29.89
2022-08-24T10:38:33.451Z,31.23
2022-08-24T10:44:06.151Z,32.07
2022-08-24T10:49:44.507Z,31.67
2022-08-24T10:54:48.725Z,31.08
2022-08-24T11:00:00.786Z,31.12
2022-08-24T11:05:09.599Z,31.69
2022-08-24T11:10:25.561Z,32.40
2022-08-24T11:15:31.736Z,33.25
2022-08-24T11:20:42.707Z,34.20
2022-08-24T11:25:56.151Z,34.89
2022-08-24T11:31:01.588Z,35.09
2022-08-24T11:36:20.931Z,34.47
2022-08-24T11:41:32.436Z,33.58
2022-08-24T11:46:46.876Z,32.76
2022-08-24T11:51:58.784Z,32.01
2022-08-24T11:57:10.510Z,31.43
2022-08-24T12:02:23.671Z,30.90
2022-08-24T12:07:42.907Z,30.62
2022-08-24T12:12:53.409Z,30.42
2022-08-24T12:18:05.081Z,30.30
2022-08-24T12:23:19.000Z,30.20
2022-08-24T12:28:28.925Z,30.12
2022-08-24T12:33:37.561Z,30.22
2022-08-24T12:38:47.195Z,30.32
2022-08-24T12:43:54.781Z,30.29
2022-08-24T12:49:04.144Z,30.26
2022-08-24T12:54:25.031Z,30.32
2022-08-24T12:59:31.842Z,30.64
2022-08-24T13:04:40.336Z,31.02
2022-08-24T13:09:48.448Z,31.32
2022-08-24T13:14:53.329Z,31.61
2022-08-24T13:20:19.472Z,31.78
2022-08-24T13:25:43.609Z,32.04
2022-08-24T13:30:59.146Z,32.15
2022-08-24T13:36:47.967Z,32.28
2022-08-24T13:42:10.110Z,32.47
2022-08-24T13:47:20.820Z,32.50
2022-08-24T13:52:38.556Z,32.33
2022-08-24T13:57:46.671Z,32.21
2022-08-24T14:03:03.179Z,32.03
2022-08-24T14:08:26.586Z,31.93
2022-08-24T14:13:47.931Z,31.81
2022-08-24T14:19:08.027Z,31.88
2022-08-24T14:24:25.077Z,31.92
2022-08-24T14:29:49.247Z,32.06
2022-08-24T14:35:04.062Z,32.09
2022-08-24T14:40:17.456Z,32.21
2022-08-24T14:45:27.764Z,32.33
2022-08-24T14:50:39.311Z,32.27
2022-08-24T14:55:54.512Z,32.12
2022-08-24T15:01:25.918Z,32.09
2022-08-24T15:06:37.957Z,31.90
2022-08-24T15:11:42.617Z,31.76
2022-08-24T15:16:54.313Z,31.71
2022-08-24T15:22:03.867Z,31.77
2022-08-24T15:27:15.959Z,31.77
2022-08-24T15:32:28.030Z,31.77
2022-08-24T15:37:36.377Z,31.54
2022-08-24T15:42:40.229Z,31.38
2022-08-24T15:47:58.387Z,31.35
2022-08-24T15:53:04.988Z,32.57
2022-08-24T15:58:31.748Z,33.68
2022-08-24T16:03:47.887Z,34.34
2022-08-24T16:08:59.504Z,34.83
2022-08-24T16:14:03.837Z,34.89
2022-08-24T16:19:21.712Z,34.74
2022-08-24T16:24:30.880Z,34.82
2022-08-24T16:29:46.116Z,34.84
2022-08-24T16:34:54.246Z,34.93
2022-08-24T16:39:58.052Z,35.00
2022-08-24T16:45:02.203Z,34.84
2022-08-24T16:50:08.379Z,33.93
2022-08-24T16:55:14.501Z,32.97
2022-08-24T17:00:21.986Z,32.30
2022-08-24T17:05:28.344Z,32.00
2022-08-24T17:10:34.987Z,31.55
2022-08-24T17:15:41.743Z,31.20
2022-08-24T17:20:47.744Z,30.79
2022-08-24T17:25:53.901Z,30.55
2022-08-24T17:30:57.819Z,30.34
2022-08-24T17:36:05.329Z,30.20
2022-08-24T17:41:09.272Z,29.99
2022-08-24T17:46:18.506Z,29.84
2022-08-24T17:51:23.659Z,29.68
2022-08-24T17:56:30.999Z,29.54
2022-08-24T18:01:34.853Z,29.47
2022-08-24T18:06:40.051Z,29.32
2022-08-24T18:11:43.873Z,29.26
2022-08-24T18:16:53.986Z,29.09
2022-08-24T18:22:01.016Z,29.00
2022-08-24T18:27:10.385Z,28.85
2022-08-24T18:32:15.004Z,28.71
2022-08-24T18:37:20.247Z,28.61
2022-08-24T18:42:26.370Z,28.46
2022-08-24T18:47:30.191Z,28.27
2022-08-24T18:52:35.971Z,28.20
2022-08-24T18:57:39.736Z,28.16
2022-08-24T19:02:43.815Z,28.07
2022-08-24T19:07:52.268Z,27.91
2022-08-24T19:12:58.954Z,27.83
2022-08-24T19:18:03.080Z,27.71
2022-08-24T19:23:14.076Z,27.63
2022-08-24T19:28:18.322Z,27.57
2022-08-24T19:33:25.787Z,27.45
2022-08-24T19:38:31.082Z,27.37
2022-08-24T19:43:35.360Z,27.27
2022-08-24T19:48:40.616Z,27.17
2022-08-24T19:53:45.807Z,27.03
2022-08-24T19:58:53.426Z,26.98
2022-08-24T20:03:57.216Z,26.83
2022-08-24T20:09:04.021Z,26.74
2022-08-24T20:14:08.259Z,26.60
2022-08-24T20:19:13.007Z,26.47
2022-08-24T20:24:18.084Z,26.38
2022-08-24T20:29:21.838Z,26.31
2022-08-24T20:34:25.529Z,26.20
2022-08-24T20:39:30.638Z,26.14
2022-08-24T20:44:34.517Z,26.00
2022-08-24T20:49:38.410Z,25.92
2022-08-24T20:54:43.510Z,25.88
2022-08-24T20:59:47.664Z,25.76
2022-08-24T21:04:51.429Z,25.74
2022-08-24T21:09:57.384Z,25.66
2022-08-24T21:15:01.107Z,25.59
2022-08-24T21:20:05.604Z,25.53
2022-08-24T21:25:11.484Z,25.43
2022-08-24T21:30:18.030Z,25.35
2022-08-24T21:35:22.525Z,25.29
2022-08-24T21:40:28.917Z,25.19
2022-08-24T21:45:32.866Z,25.15
2022-08-24T21:50:36.629Z,25.08
2022-08-24T21:55:42.559Z,25.00
2022-08-24T22:00:46.305Z,24.94
2022-08-24T22:05:50.354Z,24.90
2022-08-24T22:10:55.464Z,24.81
2022-08-24T22:15:59.423Z,24.76
2022-08-24T22:21:07.091Z,24.67
2022-08-24T22:26:12.830Z,24.62
2022-08-24T22:31:19.554Z,24.53
2022-08-24T22:36:25.614Z,24.45
2022-08-24T22:41:30.895Z,24.39
2022-08-24T22:46:36.955Z,24.30
2022-08-24T22:51:41.752Z,24.26
2022-08-24T22:56:48.785Z,24.20
2022-08-24T23:01:54.475Z,24.15
2022-08-24T23:06:58.229Z,24.07
2022-08-24T23:12:03.614Z,24.02
2022-08-24T23:17:07.434Z,23.94
2022-08-24T23:22:13.355Z,23.86
2022-08-24T23:27:19.782Z,23.79
2022-08-24T23:32:23.927Z,23.71
2022-08-24T23:37:27.781Z,23.67
2022-08-24T23:42:32.895Z,23.57
2022-08-24T23:47:36.702Z,23.51
2022-08-24T23:52:41.356Z,23.42
2022-08-24T23:57:46.473Z,23.34
